Time;durP1;ratioP1;P1;durP2;ratioP2;P2;SDS_P1;SDS_P2;PMS_P1;PMS_P2;Temp;Humidity;BMP_temperature;BMP_pressure;BME280_temperature;BME280_humidity;BME280_pressure;Samples;Min_cycle;Max_cycle;Signal;HPM_P1;HPM_P2
2023/03/14 00:02:21;;;;;;;20.20;5.27;;;;;;;9.47;100.00;97049.13;4985286;28;20084;-71
2023/03/14 00:04:47;;;;;;;20.67;4.60;;;;;;;9.60;100.00;97021.34;4985262;28;20033;-71
2023/03/14 00:07:13;;;;;;;18.83;5.80;;;;;;;9.47;100.00;96973.78;4985210;28;20034;-74
2023/03/14 00:09:38;;;;;;;18.25;4.18;;;;;;;9.39;100.00;96991.00;4984426;28;20097;-71
2023/03/14 00:12:04;;;;;;;18.80;4.47;;;;;;;9.46;100.00;97036.88;4993436;28;20022;-71
2023/03/14 00:14:31;;;;;;;18.92;4.38;;;;;;;9.48;100.00;97029.47;4984939;28;20518;-71
2023/03/14 00:16:57;;;;;;;17.83;3.20;;;;;;;9.54;100.00;97006.34;4984983;28;20035;-72
2023/03/14 00:19:22;;;;;;;20.30;4.63;;;;;;;9.56;100.00;96971.50;4984841;28;20510;-73
2023/03/14 00:21:47;;;;;;;18.50;3.97;;;;;;;9.51;100.00;96978.38;4995888;28;20238;-74
2023/03/14 00:24:13;;;;;;;22.20;5.27;;;;;;;9.50;100.00;96983.94;4983446;28;20026;-73
2023/03/14 00:26:38;;;;;;;16.70;3.97;;;;;;;9.48;100.00;97004.66;4985626;28;20042;-74
2023/03/14 00:29:05;;;;;;;24.25;5.47;;;;;;;9.49;100.00;97014.28;4982906;28;20033;-73
2023/03/14 00:31:30;;;;;;;16.50;3.17;;;;;;;9.60;100.00;97005.38;4983595;28;20035;-73
2023/03/14 00:33:56;;;;;;;21.93;3.63;;;;;;;9.52;100.00;96963.19;4984522;28;20069;-74
2023/03/14 00:36:22;;;;;;;23.65;4.65;;;;;;;9.44;100.00;96979.59;4988779;28;20018;-74
2023/03/14 00:38:50;;;;;;;15.90;3.38;;;;;;;9.43;100.00;96999.28;4998996;28;20125;-71
2023/03/14 00:41:18;;;;;;;26.42;4.75;;;;;;;9.36;100.00;97002.13;4987526;28;20114;-73
2023/03/14 00:43:43;;;;;;;21.15;3.50;;;;;;;9.34;100.00;97022.06;5002791;28;20082;-72
2023/03/14 00:46:09;;;;;;;15.20;3.90;;;;;;;9.34;100.00;97019.38;5003673;28;20120;-74
2023/03/14 00:48:34;;;;;;;21.50;4.50;;;;;;;9.29;100.00;97020.13;4986971;28;20037;-73
2023/03/14 00:51:01;;;;;;;20.73;3.80;;;;;;;9.31;100.00;97036.66;4988597;28;20852;-74
2023/03/14 00:53:26;;;;;;;16.73;4.82;;;;;;;9.27;100.00;97038.19;5003378;28;20129;-71
2023/03/14 00:55:52;;;;;;;17.10;3.13;;;;;;;9.23;100.00;97040.56;4998354;28;20034;-74
2023/03/14 00:58:18;;;;;;;18.03;4.20;;;;;;;9.30;100.00;97081.09;5002865;28;20654;-74
2023/03/14 01:00:45;;;;;;;20.80;5.00;;;;;;;9.37;100.00;97067.63;4986944;28;20102;-72
2023/03/14 01:03:11;;;;;;;28.80;4.57;;;;;;;9.32;100.00;97082.72;5003126;28;20038;-74
2023/03/14 01:05:37;;;;;;;16.90;4.93;;;;;;;9.35;100.00;97060.94;4986500;28;20034;-73
2023/03/14 01:08:04;;;;;;;28.33;4.43;;;;;;;9.32;100.00;97062.25;4986624;28;20176;-74
2023/03/14 01:10:30;;;;;;;27.17;5.13;;;;;;;9.30;100.00;97078.44;4986275;28;20035;-73
2023/03/14 01:12:57;;;;;;;23.02;4.20;;;;;;;9.25;100.00;97080.25;4986405;28;20026;-73
2023/03/14 01:15:22;;;;;;;24.00;4.33;;;;;;;9.22;100.00;97102.78;4986678;28;20446;-73
2023/03/14 01:17:47;;;;;;;21.90;4.10;;;;;;;9.25;100.00;97162.75;4986527;28;20117;-74
2023/03/14 02:17:01;;;;;;;16.52;3.83;;;;;;;8.99;100.00;97536.66;4983667;28;20107;-74
2023/03/14 02:19:56;;;;;;;18.73;4.30;;;;;;;9.00;100.00;97514.34;5001038;28;20037;-74
2023/03/14 02:22:34;;;;;;;14.88;3.63;;;;;;;8.92;100.00;97504.03;4998510;28;20069;-73
2023/03/14 02:25:25;;;;;;;11.57;3.65;;;;;;;8.94;100.00;97550.63;5001387;28;20033;-74
2023/03/14 02:27:51;;;;;;;21.92;4.03;;;;;;;9.07;100.00;97550.44;4996468;28;20260;-74
2023/03/14 02:30:22;;;;;;;19.77;3.83;;;;;;;9.06;100.00;97540.00;4985093;28;20030;-71
2023/03/14 02:32:57;;;;;;;22.67;5.07;;;;;;;9.00;100.00;97554.25;4996660;28;20059;-73
2023/03/14 02:35:27;;;;;;;13.50;3.78;;;;;;;8.92;100.00;97555.41;4986389;28;20030;-73
2023/03/14 02:38:06;;;;;;;10.93;3.33;;;;;;;8.95;100.00;97562.13;5001588;28;20080;-74
2023/03/14 02:40:36;;;;;;;14.88;3.55;;;;;;;8.96;100.00;97561.06;4985013;28;20485;-72
2023/03/14 02:43:01;;;;;;;18.10;3.88;;;;;;;8.94;100.00;97544.50;4985274;28;20037;-72
2023/03/14 02:45:35;;;;;;;16.88;3.80;;;;;;;8.98;100.00;97561.66;5001213;28;20557;-73
2023/03/14 02:48:06;;;;;;;12.48;3.50;;;;;;;9.01;100.00;97566.50;4978768;28;20034;-74
2023/03/14 02:50:34;;;;;;;20.50;3.60;;;;;;;9.02;100.00;97557.50;4984754;28;20034;-74
2023/03/14 02:53:00;;;;;;;9.75;3.28;;;;;;;9.06;100.00;97553.31;4984461;28;20472;-74
2023/03/14 02:55:26;;;;;;;16.83;3.65;;;;;;;9.01;100.00;97540.72;4984560;28;20073;-71
2023/03/14 02:57:54;;;;;;;16.98;3.20;;;;;;;9.07;100.00;97554.94;4984432;28;20030;-74
2023/03/14 03:00:20;;;;;;;20.57;3.47;;;;;;;9.09;100.00;97542.22;4984381;28;20037;-74
2023/03/14 03:02:46;;;;;;;16.35;2.97;;;;;;;9.06;100.00;97547.97;4977659;28;20084;-74
2023/03/14 03:05:13;;;;;;;20.92;4.85;;;;;;;9.03;100.00;97551.13;4980954;28;20019;-72
2023/03/14 03:07:38;;;;;;;20.30;4.17;;;;;;;8.99;100.00;97569.41;5000725;28;20498;-74
2023/03/14 03:10:04;;;;;;;15.70;3.77;;;;;;;9.08;100.00;97602.63;4993585;28;20034;-74
2023/03/14 03:12:29;;;;;;;12.73;3.50;;;;;;;9.16;100.00;97617.44;4984518;28;20430;-74
2023/03/14 03:14:55;;;;;;;14.40;4.30;;;;;;;9.21;100.00;97614.09;4984364;28;20034;-74
2023/03/14 03:17:20;;;;;;;14.47;3.30;;;;;;;9.20;100.00;97602.63;4984699;28;20919;-74
2023/03/14 03:19:46;;;;;;;18.10;2.90;;;;;;;9.26;100.00;97649.63;5000325;28;20121;-72
2023/03/14 03:22:11;;;;;;;11.10;3.67;;;;;;;9.31;100.00;97635.63;4985353;28;20282;-72
2023/03/14 03:24:39;;;;;;;7.10;2.83;;;;;;;9.35;100.00;97644.78;4984175;28;20061;-72
2023/03/14 03:27:05;;;;;;;9.57;3.90;;;;;;;9.46;100.00;97653.81;4984032;28;20511;-74
2023/03/14 03:29:30;;;;;;;23.37;5.40;;;;;;;9.47;100.00;97642.13;4983758;28;20022;-74
2023/03/14 03:31:56;;;;;;;15.33;3.10;;;;;;;9.54;100.00;97644.66;4984086;28;20092;-73
2023/03/14 03:34:21;;;;;;;15.93;4.17;;;;;;;9.55;100.00;97651.59;4984370;28;20037;-71
2023/03/14 03:36:49;;;;;;;13.73;3.55;;;;;;;9.59;100.00;97652.78;4995688;28;20042;-74
2023/03/14 03:39:15;;;;;;;15.97;3.73;;;;;;;9.60;100.00;97641.06;4983662;28;20092;-74
2023/03/14 03:41:40;;;;;;;15.70;4.23;;;;;;;9.63;100.00;97633.44;4984237;28;20676;-75
2023/03/14 03:44:06;;;;;;;18.50;3.87;;;;;;;9.55;100.00;97647.09;4984192;28;20636;-71
2023/03/14 03:46:32;;;;;;;10.23;4.10;;;;;;;9.41;100.00;97720.25;4984068;28;20030;-73
2023/03/14 03:48:59;;;;;;;15.57;4.80;;;;;;;9.34;100.00;97796.75;4983311;28;20117;-75
2023/03/14 03:51:26;;;;;;;11.35;3.58;;;;;;;9.26;100.00;97851.94;5000207;28;20061;-74
2023/03/14 03:53:51;;;;;;;11.55;4.07;;;;;;;9.27;100.00;97882.03;4983805;28;20145;-72
2023/03/14 03:56:23;;;;;;;12.48;4.93;;;;;;;9.17;100.00;97895.06;4983740;28;20376;-74
2023/03/14 03:58:49;;;;;;;18.33;5.28;;;;;;;9.17;100.00;97903.84;4983426;28;20041;-74
2023/03/14 04:01:14;;;;;;;11.27;5.73;;;;;;;9.26;100.00;97902.53;4983890;28;20042;-74
2023/03/14 04:03:40;;;;;;;14.23;4.60;;;;;;;9.24;100.00;97880.63;4993436;28;20038;-73
2023/03/14 04:06:09;;;;;;;13.95;5.43;;;;;;;9.27;100.00;97890.84;4999827;28;20018;-74
2023/03/14 04:08:37;;;;;;;9.93;5.47;;;;;;;9.19;100.00;97888.47;4984091;28;20038;-72
2023/03/14 04:11:03;;;;;;;;;;;;;;;9.21;100.00;97891.72;4988336;28;20439;-74
2023/03/14 04:13:58;;;;;;;15.98;5.35;;;;;;;9.19;100.00;97882.34;4983555;28;19920;-74
2023/03/14 04:16:25;;;;;;;12.63;5.93;;;;;;;9.28;100.00;97883.66;4987865;28;20030;-74
2023/03/14 04:18:54;;;;;;;11.60;5.10;;;;;;;9.26;100.00;97857.25;5003918;28;20045;-74
2023/03/14 04:21:21;;;;;;;13.95;5.40;;;;;;;9.24;100.00;97871.84;5003991;28;20492;-72
2023/03/14 04:23:52;;;;;;;11.93;5.57;;;;;;;9.22;100.00;97856.06;5004026;28;20034;-74
2023/03/14 04:26:17;;;;;;;16.30;5.85;;;;;;;9.19;100.00;97851.22;4987650;28;20037;-74
2023/03/14 04:28:43;;;;;;;11.95;5.82;;;;;;;9.27;100.00;97842.94;4996645;28;20203;-73
2023/03/14 04:31:12;;;;;;;14.80;5.78;;;;;;;9.26;100.00;97824.50;4987832;28;20026;-73
2023/03/14 04:33:38;;;;;;;12.32;5.95;;;;;;;9.26;100.00;97825.31;4987403;28;20038;-74
2023/03/14 04:36:05;;;;;;;11.82;5.68;;;;;;;9.32;100.00;97820.13;4987393;28;20092;-74
2023/03/14 04:38:31;;;;;;;12.30;5.88;;;;;;;9.41;100.00;97802.78;5003210;28;20030;-72
2023/03/14 04:40:59;;;;;;;14.50;6.85;;;;;;;9.35;100.00;97775.22;4997803;28;20033;-74
2023/03/14 04:43:29;;;;;;;10.95;5.88;;;;;;;9.46;100.00;97766.47;4987374;28;20018;-74
2023/03/14 04:46:01;;;;;;;16.58;6.35;;;;;;;9.38;100.00;97747.34;5003666;28;20470;-74
2023/03/14 04:48:26;;;;;;;11.65;5.50;;;;;;;9.41;100.00;97741.53;4986845;28;20379;-72
2023/03/14 04:50:52;;;;;;;17.00;5.18;;;;;;;9.40;100.00;97716.78;4987150;28;20432;-74
2023/03/14 04:53:18;;;;;;;17.05;5.55;;;;;;;9.47;100.00;97730.81;4987115;28;20057;-73
2023/03/14 04:55:54;;;;;;;14.52;5.70;;;;;;;9.55;100.00;97723.50;4987252;28;20026;-74
2023/03/14 04:58:22;;;;;;;10.63;4.80;;;;;;;9.47;100.00;97693.53;4999387;28;20490;-72
2023/03/14 05:00:49;;;;;;;12.15;5.03;;;;;;;9.45;100.00;97682.28;4984480;28;20148;-74
2023/03/14 05:03:38;;;;;;;9.57;3.33;;;;;;;9.21;100.00;97590.94;4987209;28;20101;-75
2023/03/14 05:06:22;;;;;;;3.13;1.98;;;;;;;8.92;100.00;97451.66;4987190;28;20068;-74
2023/03/14 05:09:04;;;;;;;6.50;1.83;;;;;;;8.75;100.00;97397.50;4986421;28;20034;-74
2023/03/14 05:11:48;;;;;;;4.47;1.65;;;;;;;8.50;100.00;97414.53;4985829;28;20554;-74
2023/03/14 05:14:22;;;;;;;10.32;2.25;;;;;;;8.43;100.00;97513.00;4988352;28;20038;-75
2023/03/14 05:17:05;;;;;;;3.97;1.63;;;;;;;8.15;100.00;97611.09;4988005;28;20034;-76
2023/03/14 05:19:40;;;;;;;;;;;;;;;8.13;100.00;97714.94;4986661;28;20399;-76
2023/03/14 05:22:24;;;;;;;6.05;1.08;;;;;;;7.80;100.00;97771.84;4988253;28;19914;-75
2023/03/14 05:25:03;;;;;;;5.95;1.50;;;;;;;7.75;100.00;97829.28;4996346;28;20046;-76
2023/03/14 05:27:54;;;;;;;4.68;1.42;;;;;;;7.61;100.00;97850.63;4981937;28;20053;-74
2023/03/14 05:30:47;;;;;;;4.78;1.45;;;;;;;7.54;100.00;97887.03;4983926;28;20041;-75
2023/03/14 05:33:32;;;;;;;5.85;1.25;;;;;;;7.50;100.00;97904.41;4986393;28;20487;-75
2023/03/14 05:36:13;;;;;;;6.93;1.27;;;;;;;7.46;100.00;97908.50;4986164;28;20092;-74
2023/03/14 05:39:08;;;;;;;4.43;1.60;;;;;;;7.45;100.00;97906.88;4982530;28;20067;-76
2023/03/14 05:41:39;;;;;;;7.40;3.22;;;;;;;7.36;100.00;97905.50;4986784;28;20042;-75
2023/03/14 05:44:23;;;;;;;11.27;1.75;;;;;;;7.40;100.00;97912.81;4997236;28;20056;-75
2023/03/14 05:47:08;;;;;;;4.68;1.50;;;;;;;7.33;100.00;97913.88;4987112;28;20176;-75
2023/03/14 05:50:10;;;;;;;7.88;2.25;;;;;;;7.31;100.00;97914.09;4996846;28;20049;-76
2023/03/14 05:52:55;;;;;;;7.57;1.90;;;;;;;7.28;100.00;97921.63;4981787;28;20066;-75
2023/03/14 05:55:42;;;;;;;4.82;1.67;;;;;;;7.31;100.00;97915.94;4986228;28;20029;-75
2023/03/14 05:58:15;;;;;;;9.75;2.10;;;;;;;7.41;100.00;97924.25;4998022;28;20030;-75
2023/03/14 06:01:03;;;;;;;8.75;2.20;;;;;;;7.38;100.00;97920.19;4965842;28;20042;-73
2023/03/14 06:03:40;;;;;;;10.20;2.40;;;;;;;7.42;100.00;97912.59;5002654;28;20034;-76
2023/03/14 06:06:06;;;;;;;9.52;2.90;;;;;;;7.39;100.00;97907.72;4995338;28;20104;-75
2023/03/14 06:08:31;;;;;;;6.20;3.33;;;;;;;7.45;100.00;97914.84;4986077;28;20602;-73
2023/03/14 06:10:57;;;;;;;10.13;2.50;;;;;;;7.42;100.00;97907.28;4987600;28;20403;-75
2023/03/14 06:13:27;;;;;;;6.45;2.67;;;;;;;7.44;100.00;97913.19;5002997;28;20026;-75
2023/03/14 06:15:53;;;;;;;13.17;3.10;;;;;;;7.39;100.00;97916.50;4986066;28;20065;-75
2023/03/14 06:18:18;;;;;;;13.93;3.90;;;;;;;7.41;100.00;97913.63;4986006;28;20045;-76
2023/03/14 06:20:43;;;;;;;9.70;3.00;;;;;;;7.50;100.00;97917.69;5002497;28;20093;-75
2023/03/14 06:23:13;;;;;;;7.35;3.00;;;;;;;7.51;100.00;97927.25;4986170;28;20037;-74
2023/03/14 06:25:38;;;;;;;14.53;3.57;;;;;;;7.60;100.00;97914.56;5018794;23;20014;-73
2023/03/14 06:28:04;;;;;;;10.35;3.13;;;;;;;7.63;100.00;97916.78;5019766;28;20063;-73
2023/03/14 06:30:30;;;;;;;12.70;3.20;;;;;;;7.68;100.00;97922.28;5013618;28;20470;-75
2023/03/14 06:32:56;;;;;;;16.40;3.50;;;;;;;7.66;100.00;97899.63;5022084;28;20038;-79
2023/03/14 06:35:22;;;;;;;6.37;2.77;;;;;;;7.69;100.00;97904.50;5019848;28;20440;-77
2023/03/14 06:37:48;;;;;;;16.63;3.75;;;;;;;7.70;100.00;97896.34;5007420;28;20126;-73
2023/03/14 06:40:17;;;;;;;6.63;3.20;;;;;;;7.70;100.00;97911.44;4992858;28;20113;-74
2023/03/14 06:43:04;;;;;;;8.95;3.38;;;;;;;7.64;100.00;97910.47;4996098;28;20281;-76
2023/03/14 06:45:31;;;;;;;6.30;2.90;;;;;;;7.68;100.00;97921.44;5010109;28;20053;-79
2023/03/14 06:47:58;;;;;;;13.13;4.05;;;;;;;7.70;100.00;97916.75;5017496;28;20044;-75
2023/03/14 06:50:31;;;;;;;8.60;3.45;;;;;;;7.76;100.00;97921.22;5016419;28;20569;-78
2023/03/14 06:52:58;;;;;;;10.38;3.42;;;;;;;7.82;100.00;97925.69;4992139;28;20487;-74
2023/03/14 06:55:25;;;;;;;8.30;3.70;;;;;;;7.90;100.00;97914.00;5008981;28;20402;-73
2023/03/14 06:57:52;;;;;;;10.63;4.03;;;;;;;7.94;100.00;97913.34;5008995;28;20498;-74
2023/03/14 07:00:18;;;;;;;6.07;2.75;;;;;;;8.08;100.00;97910.56;4992527;28;20056;-75
2023/03/14 07:02:44;;;;;;;6.00;3.00;;;;;;;8.07;100.00;97901.78;5025420;28;20068;-73
2023/03/14 07:05:24;;;;;;;12.32;3.72;;;;;;;8.32;100.00;97908.97;4996022;28;20037;-74
2023/03/14 07:07:50;;;;;;;14.30;3.55;;;;;;;8.45;100.00;97899.09;5022423;28;20033;-73
2023/03/14 07:10:16;;;;;;;8.75;3.53;;;;;;;8.50;100.00;97898.44;5017091;28;20433;-78
2023/03/14 07:12:41;;;;;;;13.73;2.72;;;;;;;8.42;100.00;97880.06;5027846;28;20038;-73
2023/03/14 07:15:07;;;;;;;7.17;3.07;;;;;;;8.48;100.00;97881.06;5014977;28;20478;-75
2023/03/14 07:17:33;;;;;;;8.27;3.20;;;;;;;8.48;100.00;97873.09;5016105;28;20511;-73
2023/03/14 07:19:59;;;;;;;6.73;3.30;;;;;;;8.47;100.00;97863.47;5018135;28;20172;-75
2023/03/14 07:22:25;;;;;;;8.68;3.00;;;;;;;8.24;100.00;97851.56;4991904;28;20079;-73
2023/03/14 07:24:51;;;;;;;10.48;3.88;;;;;;;8.31;100.00;97849.69;5022879;28;20117;-75
2023/03/14 07:27:17;;;;;;;6.95;3.42;;;;;;;8.30;100.00;97858.69;5012282;28;20536;-76
2023/03/14 07:29:42;;;;;;;9.90;3.30;;;;;;;8.31;100.00;97852.34;5020268;28;20035;-77
2023/03/14 07:32:08;;;;;;;5.53;2.85;;;;;;;8.27;100.00;97843.19;5026809;28;20044;-73
2023/03/14 07:34:34;;;;;;;11.10;3.87;;;;;;;8.33;100.00;97846.78;5017038;28;20053;-76
2023/03/14 07:36:59;;;;;;;7.53;3.50;;;;;;;8.35;100.00;97850.84;5022086;28;20292;-74
2023/03/14 07:39:25;;;;;;;11.60;3.53;;;;;;;8.37;100.00;97845.34;4991345;28;20128;-75
2023/03/14 07:42:04;;;;;;;7.72;2.60;;;;;;;8.40;100.00;97837.75;5015981;28;20068;-75
2023/03/14 07:44:45;;;;;;;11.30;3.20;;;;;;;8.41;100.00;97828.75;5006863;28;20073;-75
2023/03/14 07:47:10;;;;;;;10.07;2.80;;;;;;;8.43;100.00;97807.28;4988031;28;20030;-74
2023/03/14 07:49:36;;;;;;;8.10;2.93;;;;;;;8.42;100.00;97819.75;5008805;28;20045;-75
2023/03/14 07:52:01;;;;;;;11.00;3.03;;;;;;;8.50;100.00;97817.81;5004524;28;20065;-74
2023/03/14 07:54:27;;;;;;;6.90;2.53;;;;;;;8.47;100.00;97815.63;4988436;28;20036;-74
2023/03/14 07:56:52;;;;;;;8.17;2.53;;;;;;;8.56;100.00;97807.13;5006317;28;20029;-75
2023/03/14 07:59:18;;;;;;;7.30;2.43;;;;;;;8.55;100.00;97800.19;5017100;28;20089;-75
2023/03/14 08:01:43;;;;;;;9.68;2.80;;;;;;;8.58;100.00;97807.72;5017791;28;20038;-74
2023/03/14 08:04:09;;;;;;;15.73;3.13;;;;;;;8.55;100.00;97797.53;5005809;28;20033;-75
2023/03/14 08:06:36;;;;;;;12.93;3.22;;;;;;;8.60;100.00;97799.53;5005221;28;20287;-75
2023/03/14 08:09:02;;;;;;;;;;;;;;;8.57;100.00;97789.31;5004301;28;20069;-75
2023/03/14 08:11:27;;;;;;;5.63;2.40;;;;;;;8.54;100.00;97793.22;5004526;28;19963;-74
2023/03/14 08:13:52;;;;;;;9.20;2.73;;;;;;;8.51;100.00;97795.53;5004289;28;20057;-74
2023/03/14 08:16:18;;;;;;;7.13;2.40;;;;;;;8.40;100.00;97807.69;5004280;28;20021;-75
2023/03/14 08:18:45;;;;;;;5.00;2.40;;;;;;;8.39;100.00;97852.06;5005175;28;20042;-74
2023/03/14 08:21:10;;;;;;;7.78;1.73;;;;;;;8.35;100.00;97879.28;5020828;28;20049;-75
2023/03/14 08:23:36;;;;;;;13.55;3.38;;;;;;;8.25;100.00;97882.44;4987765;28;20561;-75
2023/03/14 08:26:01;;;;;;;7.07;2.97;;;;;;;8.37;100.00;97896.66;5028160;28;20033;-75
2023/03/14 08:28:30;;;;;;;15.38;3.20;;;;;;;8.48;100.00;97907.66;5012618;28;20014;-74
2023/03/14 08:30:57;;;;;;;9.68;4.28;;;;;;;8.51;100.00;97912.53;5001489;28;20030;-75
2023/03/14 08:33:23;;;;;;;8.45;2.67;;;;;;;8.60;100.00;97911.22;5015595;28;20034;-75
2023/03/14 08:35:50;;;;;;;6.30;2.20;;;;;;;8.77;100.00;97914.13;4987739;28;20474;-74
2023/03/14 08:38:16;;;;;;;8.15;2.67;;;;;;;8.79;100.00;97888.91;5016250;28;20037;-74
2023/03/14 08:40:41;;;;;;;11.60;3.63;;;;;;;8.75;100.00;97886.94;5015549;28;20029;-75
2023/03/14 08:43:06;;;;;;;5.50;3.07;;;;;;;8.89;100.00;97888.41;5006523;28;20045;-75
2023/03/14 08:45:32;;;;;;;6.60;2.83;;;;;;;8.67;100.00;97869.41;5014687;28;20045;-75
2023/03/14 08:47:58;;;;;;;7.03;2.53;;;;;;;8.83;100.00;97881.31;5017995;28;20049;-76
2023/03/14 08:50:24;;;;;;;9.23;3.15;;;;;;;8.79;100.00;97888.13;5013425;28;20033;-75
2023/03/14 08:52:49;;;;;;;10.32;3.80;;;;;;;8.50;100.00;97917.03;5002800;28;20029;-75
2023/03/14 08:55:15;;;;;;;10.43;3.53;;;;;;;8.47;100.00;97949.38;5000659;28;20041;-75
2023/03/14 08:57:40;;;;;;;8.80;3.23;;;;;;;8.32;100.00;97954.97;5016692;28;20037;-75
2023/03/14 09:00:12;;;;;;;9.37;3.80;;;;;;;8.37;100.00;97971.09;5019171;28;20771;-75
2023/03/14 09:02:38;;;;;;;5.85;3.20;;;;;;;8.35;100.00;97989.09;5017349;28;20780;-75
2023/03/14 09:05:04;;;;;;;6.23;2.60;;;;;;;8.27;100.00;98001.84;5016874;28;20032;-75
2023/03/14 09:07:29;;;;;;;;;;;;;;;8.30;100.00;98001.41;5019982;28;20079;-75
2023/03/14 09:09:54;;;;;;;8.63;3.40;;;;;;;8.31;100.00;98025.13;5019232;28;19925;-75
2023/03/14 09:12:20;;;;;;;10.13;3.50;;;;;;;8.18;100.00;98015.38;5020212;28;20045;-75
2023/03/14 09:14:45;;;;;;;11.43;4.15;;;;;;;8.17;100.00;98015.59;5015857;28;20347;-75
2023/03/14 09:17:11;;;;;;;8.63;2.90;;;;;;;8.17;100.00;98026.22;5020218;28;20030;-75
2023/03/14 09:19:36;;;;;;;12.60;3.33;;;;;;;8.28;100.00;98028.19;5016828;28;20475;-75
2023/03/14 09:22:02;;;;;;;9.23;3.83;;;;;;;8.21;100.00;98028.22;5017091;28;20407;-75
2023/03/14 09:24:28;;;;;;;10.77;3.25;;;;;;;8.31;100.00;98035.78;5019437;28;20109;-75
2023/03/14 09:26:54;;;;;;;11.13;3.13;;;;;;;8.28;100.00;98036.19;5020605;28;20201;-75
2023/03/14 09:29:20;;;;;;;6.10;3.42;;;;;;;8.26;100.00;98043.53;5018714;28;20272;-75
2023/03/14 09:31:45;;;;;;;7.43;3.37;;;;;;;8.23;100.00;98033.34;5016996;28;20562;-75
2023/03/14 09:34:10;;;;;;;15.43;3.73;;;;;;;8.12;100.00;98029.50;5008532;28;20045;-75
2023/03/14 09:36:38;;;;;;;8.97;3.87;;;;;;;8.22;100.00;98034.38;5018421;28;20091;-76
2023/03/14 09:39:04;;;;;;;6.93;3.40;;;;;;;8.24;100.00;98056.22;5016762;28;20491;-75
2023/03/14 09:41:42;;;;;;;4.50;1.05;;;;;;;7.25;100.00;98063.53;5019461;28;20386;-75
2023/03/14 09:44:24;;;;;;;4.15;0.52;;;;;;;5.44;100.00;97974.19;5016376;28;20397;-76
2023/03/14 09:46:53;;;;;;;2.28;1.00;;;;;;;4.64;100.00;97946.47;5014410;28;20101;-75
2023/03/14 09:49:28;;;;;;;3.60;1.40;;;;;;;4.16;100.00;97933.91;5018201;28;20487;-74
2023/03/14 09:51:57;;;;;;;5.00;0.70;;;;;;;3.95;100.00;97949.75;4999260;28;20209;-74
2023/03/14 09:54:36;;;;;;;4.18;0.90;;;;;;;3.76;100.00;97980.22;5001175;28;20029;-74
2023/03/14 09:57:02;;;;;;;2.42;0.77;;;;;;;3.52;100.00;98023.59;5017894;28;20510;-75
2023/03/14 09:59:29;;;;;;;6.90;0.82;;;;;;;3.37;100.00;98005.13;5018212;28;20445;-75
2023/03/14 10:01:59;;;;;;;8.30;2.33;;;;;;;3.35;100.00;98022.97;4982419;28;20042;-74
2023/03/14 10:04:25;;;;;;;5.50;1.77;;;;;;;3.22;100.00;98039.41;5019499;28;20482;-74
2023/03/14 10:06:51;;;;;;;1.70;0.77;;;;;;;3.01;100.00;98041.94;5018436;28;20041;-74
2023/03/14 10:09:25;;;;;;;6.82;1.08;;;;;;;3.05;100.00;98074.88;5019049;28;20065;-74
2023/03/14 10:11:56;;;;;;;4.93;0.93;;;;;;;3.04;100.00;98104.84;5013090;28;20500;-74
2023/03/14 10:14:53;;;;;;;3.63;0.90;;;;;;;2.88;100.00;98101.38;5019234;28;20037;-74
2023/03/14 10:17:20;;;;;;;4.10;1.33;;;;;;;2.93;100.00;98120.09;4995840;28;20037;-74
2023/03/14 10:19:59;;;;;;;10.70;1.60;;;;;;;2.88;100.00;98133.00;5014367;28;20065;-74
2023/03/14 10:22:30;;;;;;;7.97;1.70;;;;;;;2.78;100.00;98135.03;5000414;28;20041;-73
2023/03/14 10:25:02;;;;;;;3.78;0.93;;;;;;;3.04;100.00;98176.84;5018783;28;20486;-74
2023/03/14 10:27:33;;;;;;;3.30;1.23;;;;;;;2.99;100.00;98181.81;5016638;28;20033;-74
2023/03/14 10:30:02;;;;;;;5.25;0.82;;;;;;;2.74;100.00;98181.19;5016800;28;20069;-74
2023/03/14 10:32:33;;;;;;;4.28;0.73;;;;;;;2.90;100.00;98202.16;5020822;28;20108;-74
2023/03/14 10:35:07;;;;;;;6.18;0.90;;;;;;;2.60;100.00;98187.19;4991697;28;20172;-74
2023/03/14 10:37:33;;;;;;;3.03;0.60;;;;;;;2.26;100.00;98172.56;5016061;28;20064;-74
2023/03/14 10:40:05;;;;;;;1.63;0.85;;;;;;;2.40;100.00;98202.63;5015464;28;20064;-74
2023/03/14 10:42:34;;;;;;;5.72;1.30;;;;;;;2.61;100.00;98236.25;5016765;28;20033;-74
2023/03/14 10:45:32;;;;;;;3.47;0.75;;;;;;;2.32;100.00;98238.53;5000853;28;20084;-73
2023/03/14 10:48:19;;;;;;;3.65;1.17;;;;;;;2.25;100.00;98226.25;4995290;28;20042;-74
2023/03/14 10:50:54;;;;;;;5.20;0.85;;;;;;;2.57;100.00;98266.56;5014230;28;20077;-74
2023/03/14 10:53:20;;;;;;;3.15;0.85;;;;;;;2.70;100.00;98277.38;5017208;28;20525;-73
2023/03/14 10:55:45;;;;;;;7.10;1.53;;;;;;;2.70;100.00;98282.66;5004314;28;20060;-74
2023/03/14 10:58:42;;;;;;;2.88;1.17;;;;;;;2.75;100.00;98291.66;5017965;28;20037;-74
2023/03/14 11:01:29;;;;;;;3.80;1.00;;;;;;;2.85;100.00;98299.34;5016898;28;20525;-74
2023/03/14 11:04:03;;;;;;;7.15;2.67;;;;;;;3.04;100.00;98323.63;5017109;28;20046;-74
2023/03/14 11:06:39;;;;;;;3.47;1.50;;;;;;;2.99;100.00;98310.16;5017674;28;20402;-74
2023/03/14 11:09:16;;;;;;;5.05;0.85;;;;;;;3.23;100.00;98332.91;5015364;28;20049;-74
2023/03/14 11:11:46;;;;;;;3.63;1.00;;;;;;;3.02;100.00;98313.28;5014397;28;20348;-74
2023/03/14 11:14:19;;;;;;;7.45;1.40;;;;;;;3.24;100.00;98316.13;5002118;28;20033;-74
2023/03/14 11:17:02;;;;;;;3.85;1.05;;;;;;;3.43;100.00;98322.75;5013748;28;20045;-74
2023/03/14 11:19:39;;;;;;;9.00;2.17;;;;;;;3.28;100.00;98307.69;4983817;28;20025;-74
2023/03/14 11:22:38;;;;;;;6.40;1.55;;;;;;;3.38;100.00;98326.72;4999695;28;20061;-74
2023/03/14 11:25:17;;;;;;;8.13;1.50;;;;;;;3.67;100.00;98333.09;4985113;28;20041;-74
2023/03/14 11:28:07;;;;;;;3.08;1.15;;;;;;;4.20;100.00;98346.34;5013886;28;20061;-74
2023/03/14 11:30:52;;;;;;;1.38;0.68;;;;;;;4.31;100.00;98334.50;5014841;28;20536;-75
2023/03/14 11:33:50;;;;;;;3.63;0.77;;;;;;;4.25;100.00;98299.06;5018876;28;20065;-74
2023/03/14 11:36:21;;;;;;;4.25;1.02;;;;;;;4.48;100.00;98291.06;5010451;28;20044;-74
2023/03/14 11:38:49;;;;;;;2.28;1.10;;;;;;;4.70;100.00;98289.28;5010977;28;20107;-74
2023/03/14 11:41:20;;;;;;;5.75;1.10;;;;;;;4.59;100.00;98247.50;5018153;28;20108;-74
2023/03/14 11:43:48;;;;;;;5.35;1.10;;;;;;;4.48;100.00;98193.28;5018059;28;20053;-74
2023/03/14 11:46:23;;;;;;;6.60;1.10;;;;;;;4.84;100.00;98213.59;5005535;28;20487;-74
2023/03/14 11:49:11;;;;;;;5.90;1.10;;;;;;;4.84;100.00;98182.69;4987960;28;20096;-74
2023/03/14 11:51:41;;;;;;;9.02;1.25;;;;;;;4.71;100.00;98139.47;5003938;28;20037;-74
2023/03/14 11:54:32;;;;;;;4.70;1.88;;;;;;;4.96;100.00;98095.75;5005736;28;20064;-74
2023/03/14 11:57:01;;;;;;;9.68;1.40;;;;;;;5.07;100.00;98060.84;5004479;28;20121;-74
2023/03/14 11:59:39;;;;;;;7.80;1.98;;;;;;;5.24;100.00;98018.22;5004849;28;20081;-73
2023/03/14 12:02:15;;;;;;;8.18;1.92;;;;;;;5.23;100.00;97980.38;5021160;28;20092;-73
2023/03/14 12:04:50;;;;;;;4.93;1.50;;;;;;;5.32;100.00;97982.88;5017866;28;20041;-74
2023/03/14 12:07:58;;;;;;;6.63;1.73;;;;;;;4.96;100.00;97884.22;5010495;28;20695;-74
2023/03/14 12:10:24;;;;;;;4.28;1.45;;;;;;;4.80;100.00;97805.25;4998730;28;20049;-74
2023/03/14 12:12:49;;;;;;;8.75;0.95;;;;;;;4.69;100.00;97790.78;5004324;28;20030;-74
2023/03/14 12:15:20;;;;;;;8.30;1.80;;;;;;;4.71;100.00;97786.13;5005481;28;20042;-73
2023/03/14 12:17:46;;;;;;;19.92;2.40;;;;;;;4.33;100.00;97712.59;5005497;28;20179;-73
2023/03/14 12:20:12;;;;;;;;;;;;;;;4.71;100.00;97822.31;5004285;28;20022;-73
2023/03/14 12:22:43;;;;;;;7.68;1.63;;;;;;;4.69;100.00;97789.97;5023599;28;19924;-74
2023/03/14 12:25:11;;;;;;;4.57;1.42;;;;;;;4.95;100.00;97792.72;5005369;28;20026;-73
2023/03/14 12:27:44;;;;;;;12.52;1.65;;;;;;;5.25;100.00;97808.25;5004499;28;20038;-73
2023/03/14 12:30:15;;;;;;;9.88;2.25;;;;;;;5.30;100.00;97744.97;5024078;28;20034;-74
2023/03/14 12:32:41;;;;;;;6.18;1.65;;;;;;;5.46;100.00;97768.41;5016479;28;20048;-73
2023/03/14 12:35:33;;;;;;;22.83;2.93;;;;;;;5.02;100.00;97612.94;5023214;28;20022;-74
2023/03/14 12:38:02;;;;;;;9.98;2.40;;;;;;;5.21;100.00;97596.22;4991536;28;20092;-74
2023/03/14 12:40:51;;;;;;;8.93;2.80;;;;;;;5.02;100.00;97547.63;5004108;28;20091;-74
2023/03/14 12:43:30;;;;;;;9.00;2.10;;;;;;;4.90;100.00;97549.28;5014060;28;20396;-74
2023/03/14 12:46:17;;;;;;;14.18;2.03;;;;;;;4.93;100.00;97571.84;5023686;28;20037;-74